Time;durP1;ratioP1;P1;durP2;ratioP2;P2;SDS_P1;SDS_P2;PMS_P1;PMS_P2;Temp;Humidity;BMP_temperature;BMP_pressure;BME280_temperature;BME280_humidity;BME280_pressure;Samples;Min_cycle;Max_cycle;Signal;HPM_P1;HPM_P2
2022/11/12 00:01:11;;;;;;;8.90;4.53;;;8.40;99.90;;;;;;5060059;28;20039;-76
2022/11/12 00:03:37;;;;;;;6.50;3.95;;;8.40;99.90;;;;;;5068954;28;20031;-76
2022/11/12 00:06:03;;;;;;;7.15;4.25;;;8.40;99.90;;;;;;5068861;28;20029;-76
2022/11/12 00:08:28;;;;;;;10.02;4.63;;;8.40;99.90;;;;;;5064908;28;20470;-79
2022/11/12 00:10:54;;;;;;;8.55;4.35;;;8.50;99.90;;;;;;5062459;28;20039;-76
2022/11/12 00:13:19;;;;;;;7.63;4.13;;;8.50;99.90;;;;;;5057505;28;20033;-76
2022/11/12 00:15:45;;;;;;;6.32;3.58;;;8.50;99.90;;;;;;5054664;28;20518;-78
2022/11/12 00:18:11;;;;;;;12.27;3.92;;;8.50;99.90;;;;;;5067683;28;20094;-85
2022/11/12 00:20:37;;;;;;;6.60;3.80;;;8.50;99.90;;;;;;5061542;28;20063;-76
2022/11/12 00:23:03;;;;;;;5.82;3.78;;;8.50;99.90;;;;;;5060802;28;20037;-84
2022/11/12 00:25:29;;;;;;;10.35;3.90;;;8.50;99.90;;;;;;5068061;28;20477;-83
2022/11/12 00:28:01;;;;;;;11.05;3.88;;;8.40;99.90;;;;;;5056339;28;20099;-82
2022/11/12 00:30:26;;;;;;;6.47;3.53;;;8.40;99.90;;;;;;5065682;28;20136;-83
2022/11/12 00:32:52;;;;;;;7.70;3.70;;;8.40;99.90;;;;;;5063385;28;20032;-80
2022/11/12 00:35:18;;;;;;;6.28;3.67;;;8.40;99.90;;;;;;5068163;28;20394;-83
2022/11/12 00:37:43;;;;;;;5.63;3.30;;;8.40;99.90;;;;;;5070877;28;20101;-83
2022/11/12 00:40:09;;;;;;;8.88;3.55;;;8.50;99.90;;;;;;5056870;28;20017;-81
2022/11/12 00:42:35;;;;;;;7.88;4.50;;;8.40;99.90;;;;;;5063463;28;20178;-79
2022/11/12 00:45:00;;;;;;;9.25;3.58;;;8.40;99.90;;;;;;5063283;28;20540;-79
2022/11/12 00:47:26;;;;;;;11.02;4.05;;;8.40;99.90;;;;;;5057319;28;20029;-80
2022/11/12 00:49:51;;;;;;;6.45;3.90;;;8.40;99.90;;;;;;5067845;28;20021;-79
2022/11/12 00:52:17;;;;;;;8.38;5.07;;;8.40;99.90;;;;;;5057629;28;20470;-79
2022/11/12 00:54:43;;;;;;;8.98;4.70;;;8.40;99.90;;;;;;5061923;28;20024;-80
2022/11/12 00:57:09;;;;;;;12.82;4.47;;;8.40;99.90;;;;;;5064635;28;20060;-82
2022/11/12 00:59:34;;;;;;;7.35;4.20;;;8.40;99.90;;;;;;5055606;28;20036;-83
2022/11/12 01:02:00;;;;;;;8.05;4.35;;;8.40;99.90;;;;;;5069117;28;20382;-87
2022/11/12 01:04:25;;;;;;;7.07;3.70;;;8.40;99.90;;;;;;5059060;28;20043;-82
2022/11/12 01:06:51;;;;;;;6.35;3.60;;;8.40;99.90;;;;;;5071622;28;20531;-83
2022/11/12 01:09:16;;;;;;;7.70;3.80;;;8.40;99.90;;;;;;5058473;28;20053;-86
2022/11/12 01:11:42;;;;;;;6.93;3.60;;;8.40;99.90;;;;;;5069088;28;20354;-81
2022/11/12 01:14:09;;;;;;;6.95;3.65;;;8.40;99.90;;;;;;5057874;28;20028;-81
2022/11/12 01:16:37;;;;;;;7.07;3.45;;;8.40;99.90;;;;;;5064239;28;20577;-81
2022/11/12 01:19:04;;;;;;;6.93;3.58;;;8.40;99.90;;;;;;5064277;28;20028;-78
2022/11/12 01:21:32;;;;;;;7.50;3.90;;;8.40;99.90;;;;;;5056154;28;20105;-82
2022/11/12 01:23:59;;;;;;;7.07;3.55;;;8.40;99.90;;;;;;5067306;28;20477;-83
2022/11/12 01:26:27;;;;;;;8.68;4.22;;;8.40;99.90;;;;;;5061442;28;20020;-83
2022/11/12 01:28:53;;;;;;;7.15;3.55;;;8.40;99.90;;;;;;5060977;28;20363;-85
2022/11/12 01:31:25;;;;;;;9.25;3.95;;;8.40;99.90;;;;;;5066754;28;20569;-84
2022/11/12 01:33:59;;;;;;;7.18;3.97;;;8.40;99.90;;;;;;5055095;28;20033;-77
2022/11/12 01:36:26;;;;;;;6.05;3.15;;;8.50;99.90;;;;;;5051156;28;20025;-78
2022/11/12 01:38:53;;;;;;;6.78;4.00;;;8.50;99.90;;;;;;5061665;28;20028;-77
2022/11/12 01:41:25;;;;;;;7.70;3.65;;;8.40;99.90;;;;;;5056471;28;20057;-77
2022/11/12 01:44:12;;;;;;;7.88;3.67;;;8.40;99.90;;;;;;5066860;28;20025;-77
2022/11/12 01:47:01;;;;;;;6.10;3.20;;;8.40;99.90;;;;;;5059906;28;20032;-80
2022/11/12 01:49:56;;;;;;;7.32;3.25;;;8.40;99.90;;;;;;5055426;28;20383;-80
2022/11/12 01:52:34;;;;;;;6.82;3.50;;;8.30;99.90;;;;;;5032326;28;20068;-78
2022/11/12 01:55:05;;;;;;;6.68;3.75;;;8.30;99.90;;;;;;5064540;28;20035;-78
2022/11/12 01:57:37;;;;;;;7.63;3.78;;;8.30;99.90;;;;;;5058133;28;20025;-78
2022/11/12 02:00:07;;;;;;;7.22;3.67;;;8.30;99.90;;;;;;5042404;28;20125;-77
2022/11/12 02:02:34;;;;;;;7.35;3.50;;;8.20;99.90;;;;;;5068003;28;20071;-79
2022/11/12 02:05:03;;;;;;;7.35;3.67;;;8.30;99.90;;;;;;5065090;28;20052;-78
2022/11/12 02:07:30;;;;;;;6.97;3.80;;;8.20;99.90;;;;;;5074295;28;20119;-79
2022/11/12 02:09:58;;;;;;;7.70;4.10;;;8.20;99.90;;;;;;5075704;28;20060;-78
2022/11/12 02:15:08;;;;;;;15.68;8.07;;;8.30;99.90;;;;;;5076187;28;20043;-78
2022/11/12 02:17:34;;;;;;;10.50;4.70;;;8.30;99.90;;;;;;5057613;28;20024;-75
2022/11/12 02:19:59;;;;;;;9.52;4.30;;;8.30;99.90;;;;;;5071105;28;20029;-77
2022/11/12 02:22:25;;;;;;;9.13;4.03;;;8.40;99.90;;;;;;5053986;28;20371;-76
2022/11/12 02:24:51;;;;;;;9.63;4.38;;;8.30;99.90;;;;;;5063484;28;20112;-77
2022/11/12 02:27:17;;;;;;;13.63;3.95;;;8.30;99.90;;;;;;5060943;28;20028;-76
2022/11/12 02:29:45;;;;;;;10.10;4.55;;;8.20;99.90;;;;;;5069809;28;20517;-76
2022/11/12 02:32:13;;;;;;;7.90;3.75;;;8.20;99.90;;;;;;5059774;28;20028;-76
2022/11/12 02:34:40;;;;;;;7.60;3.95;;;8.30;99.90;;;;;;5064599;28;20033;-77
2022/11/12 02:37:06;;;;;;;7.63;3.83;;;8.20;99.90;;;;;;5053092;28;20025;-77
2022/11/12 02:39:32;;;;;;;7.20;3.90;;;8.20;99.90;;;;;;5054675;28;20060;-78
2022/11/12 02:41:58;;;;;;;7.05;3.83;;;8.20;99.90;;;;;;5070851;28;20055;-77
2022/11/12 02:44:24;;;;;;;7.35;3.70;;;8.20;99.90;;;;;;5054688;28;20056;-77
2022/11/12 02:46:50;;;;;;;8.48;4.40;;;8.20;99.90;;;;;;5064107;28;20075;-77
2022/11/12 02:49:15;;;;;;;5.88;3.53;;;8.20;99.90;;;;;;5059638;28;20033;-77
2022/11/12 02:51:41;;;;;;;7.75;3.95;;;8.20;99.90;;;;;;5070874;28;20480;-76
2022/11/12 02:54:06;;;;;;;6.43;3.95;;;8.20;99.90;;;;;;5058543;28;20032;-76
2022/11/12 02:56:32;;;;;;;6.13;3.60;;;8.20;99.90;;;;;;5067039;28;20032;-78
2022/11/12 02:58:58;;;;;;;6.32;3.55;;;8.30;99.90;;;;;;5064071;28;20107;-76
2022/11/12 03:01:23;;;;;;;7.90;3.88;;;8.20;99.90;;;;;;5059619;28;20442;-75
2022/11/12 03:03:49;;;;;;;6.63;3.70;;;8.30;99.90;;;;;;5069106;28;20116;-76
2022/11/12 03:06:15;;;;;;;5.20;3.33;;;8.30;99.90;;;;;;5069707;28;20066;-76
2022/11/12 03:08:40;;;;;;;7.65;3.50;;;8.30;99.90;;;;;;5064724;28;20091;-77
2022/11/12 03:11:09;;;;;;;7.28;3.70;;;8.30;99.90;;;;;;5065953;28;20059;-78
2022/11/12 03:13:35;;;;;;;7.25;3.70;;;8.30;99.90;;;;;;5057657;28;20048;-80
2022/11/12 03:16:01;;;;;;;6.68;3.97;;;8.40;99.90;;;;;;5041848;28;20028;-80
2022/11/12 03:18:26;;;;;;;8.35;3.92;;;8.30;99.90;;;;;;5074162;28;20029;-80
2022/11/12 03:20:52;;;;;;;7.40;3.90;;;8.20;99.90;;;;;;5073353;28;20124;-78
2022/11/12 03:23:18;;;;;;;7.30;3.70;;;8.30;99.90;;;;;;5060189;28;20478;-77
2022/11/12 03:25:43;;;;;;;5.82;3.33;;;8.20;99.90;;;;;;5068966;28;20389;-79
2022/11/12 03:28:13;;;;;;;7.20;3.88;;;8.20;99.90;;;;;;5054115;28;20450;-77
2022/11/12 03:30:41;;;;;;;6.40;3.55;;;8.20;99.90;;;;;;5061331;28;20036;-77
2022/11/12 03:33:09;;;;;;;6.20;3.35;;;8.20;99.90;;;;;;5072630;28;20071;-78
2022/11/12 03:35:36;;;;;;;8.75;3.33;;;8.20;99.90;;;;;;5061795;28;20029;-79
2022/11/12 03:38:02;;;;;;;7.50;3.63;;;8.20;99.90;;;;;;5070105;28;20617;-78
2022/11/12 03:40:29;;;;;;;6.05;3.55;;;8.20;99.90;;;;;;5053149;28;20029;-78
2022/11/12 03:42:54;;;;;;;7.03;3.65;;;8.20;99.90;;;;;;5052431;28;20025;-78
2022/11/12 03:45:22;;;;;;;7.53;3.90;;;8.20;99.90;;;;;;5053395;28;20446;-78
2022/11/12 03:47:53;;;;;;;5.47;3.50;;;8.20;99.90;;;;;;5052552;28;20504;-78
2022/11/12 03:50:22;;;;;;;7.00;3.63;;;8.20;99.90;;;;;;5053031;28;20115;-80
2022/11/12 03:52:49;;;;;;;5.55;3.17;;;8.20;99.90;;;;;;5062350;28;20432;-81
2022/11/12 03:55:17;;;;;;;7.45;3.45;;;8.20;99.90;;;;;;5073668;28;20466;-84
2022/11/12 03:57:43;;;;;;;5.97;3.28;;;8.10;99.90;;;;;;5056423;28;20510;-76
2022/11/12 04:00:10;;;;;;;4.78;2.92;;;8.10;99.90;;;;;;5069058;28;20104;-77
2022/11/12 04:02:37;;;;;;;5.18;3.13;;;8.10;99.90;;;;;;5062307;28;20036;-77
2022/11/12 04:10:34;;;;;;;5.13;2.95;;;8.10;99.90;;;;;;5061282;28;20055;-80
2022/11/12 04:15:44;;;;;;;5.70;3.45;;;8.10;99.90;;;;;;5056592;28;20052;-77
2022/11/12 04:23:57;;;;;;;5.38;3.30;;;8.10;99.90;;;;;;5052698;28;20036;-87
2022/11/12 04:26:23;;;;;;;4.18;2.55;;;8.00;99.90;;;;;;5052308;28;20476;-82
2022/11/12 04:31:33;;;;;;;4.70;3.00;;;8.10;99.90;;;;;;5074613;28;20074;-86
2022/11/12 04:34:27;;;;;;;5.03;3.00;;;8.10;99.90;;;;;;5073297;28;20424;-87
2022/11/12 04:36:44;;;;;;;5.10;3.13;;;8.20;99.90;;;;;;5073121;28;20028;-77
2022/11/12 04:39:09;;;;;;;7.05;3.40;;;8.10;99.90;;;;;;5073649;28;20021;-84
2022/11/12 04:47:03;;;;;;;5.72;2.97;;;8.10;99.90;;;;;;5073046;28;20078;-84
2022/11/12 04:49:29;;;;;;;5.80;3.28;;;8.10;99.90;;;;;;5074036;28;20024;-84
2022/11/12 04:52:06;;;;;;;4.95;3.20;;;8.10;99.90;;;;;;5072509;28;20028;-85
2022/11/12 04:54:32;;;;;;;4.50;3.00;;;8.10;99.90;;;;;;5072967;28;20020;-85
2022/11/12 04:56:59;;;;;;;5.57;3.42;;;8.10;99.90;;;;;;5072339;28;20116;-86
2022/11/12 04:59:25;;;;;;;5.22;2.95;;;8.20;99.90;;;;;;5072692;28;20024;-86
2022/11/12 05:01:50;;;;;;;5.30;3.05;;;8.20;99.90;;;;;;5048350;28;20025;-86
2022/11/12 05:04:16;;;;;;;4.25;2.95;;;8.10;99.90;;;;;;5059713;28;20013;-86
2022/11/12 05:06:52;;;;;;;6.35;3.22;;;8.10;99.90;;;;;;5052064;28;20056;-86
2022/11/12 05:09:23;;;;;;;6.00;3.47;;;8.20;99.90;;;;;;5068595;28;20109;-85
2022/11/12 05:11:49;;;;;;;6.68;3.85;;;8.20;99.90;;;;;;5057366;28;20035;-86
2022/11/12 05:14:15;;;;;;;4.75;2.83;;;8.20;99.90;;;;;;5053521;28;20029;-87
2022/11/12 05:16:41;;;;;;;6.13;3.35;;;8.10;99.90;;;;;;5069687;28;20021;-86
2022/11/12 05:19:06;;;;;;;5.00;3.03;;;8.20;99.90;;;;;;5059275;28;20358;-86
2022/11/12 05:24:16;;;;;;;4.93;3.13;;;8.10;99.90;;;;;;5061858;28;20032;-86
2022/11/12 05:26:42;;;;;;;5.03;3.20;;;8.10;99.90;;;;;;5061457;28;20024;-86
2022/11/12 05:29:07;;;;;;;5.70;3.38;;;8.10;99.90;;;;;;5070342;28;20373;-87
2022/11/12 05:31:33;;;;;;;5.22;3.55;;;8.10;99.90;;;;;;5060729;28;20040;-85
2022/11/12 05:33:59;;;;;;;5.93;3.40;;;8.10;99.90;;;;;;5069785;28;20025;-86
2022/11/12 05:36:25;;;;;;;5.45;3.33;;;8.00;99.90;;;;;;5066347;28;20019;-88
2022/11/12 05:38:50;;;;;;;5.55;3.28;;;8.00;99.90;;;;;;5063399;28;20021;-88
2022/11/12 05:41:16;;;;;;;5.50;3.15;;;8.00;99.90;;;;;;5074944;28;20419;-88
2022/11/12 05:43:42;;;;;;;5.80;3.72;;;8.00;99.90;;;;;;5060515;28;20016;-87
2022/11/12 05:46:07;;;;;;;5.03;3.10;;;8.00;99.90;;;;;;5068281;28;20021;-85
2022/11/12 05:48:33;;;;;;;7.65;3.28;;;8.00;99.90;;;;;;5068288;28;20031;-86
2022/11/12 05:50:58;;;;;;;5.63;3.40;;;8.00;99.90;;;;;;5061367;28;20025;-86
2022/11/12 05:53:24;;;;;;;4.57;3.40;;;8.00;99.90;;;;;;5073797;28;20473;-86
2022/11/12 05:55:50;;;;;;;5.22;3.42;;;8.00;99.90;;;;;;5061149;28;20108;-84
2022/11/12 05:58:15;;;;;;;8.15;3.60;;;8.00;99.90;;;;;;5068631;28;20028;-86
2022/11/12 06:00:41;;;;;;;6.32;3.95;;;8.00;99.90;;;;;;5059088;28;20033;-86
2022/11/12 06:03:08;;;;;;;9.00;3.72;;;8.00;99.90;;;;;;5055437;28;20566;-86
2022/11/12 06:05:34;;;;;;;8.52;4.30;;;8.00;99.90;;;;;;5072877;28;20378;-86
2022/11/12 06:08:00;;;;;;;7.03;3.58;;;8.00;99.90;;;;;;5061426;28;20012;-85
2022/11/12 06:10:26;;;;;;;8.45;4.40;;;8.00;99.90;;;;;;5066033;28;20044;-86
2022/11/12 06:12:52;;;;;;;6.95;4.07;;;8.00;99.90;;;;;;5069582;28;20441;-86
2022/11/12 06:15:18;;;;;;;8.88;4.38;;;8.10;99.90;;;;;;5058881;28;20032;-85
2022/11/12 06:17:44;;;;;;;7.10;4.45;;;8.10;99.90;;;;;;5072725;28;20099;-86
2022/11/12 06:20:10;;;;;;;9.23;4.53;;;8.10;99.90;;;;;;5063713;28;20048;-83
2022/11/12 06:22:36;;;;;;;7.88;4.47;;;8.10;99.90;;;;;;5065005;28;20442;-84
2022/11/12 06:25:03;;;;;;;7.75;4.32;;;8.10;99.90;;;;;;5069762;28;20091;-83
2022/11/12 06:27:28;;;;;;;8.20;4.70;;;8.00;99.90;;;;;;5059968;28;20024;-84
2022/11/12 06:29:54;;;;;;;6.85;4.40;;;8.00;99.90;;;;;;5069194;28;20031;-84
2022/11/12 06:32:20;;;;;;;7.68;4.35;;;8.00;99.90;;;;;;5065814;28;20377;-84
2022/11/12 06:34:45;;;;;;;8.15;4.25;;;8.00;99.90;;;;;;5065988;28;20480;-83
2022/11/12 06:37:11;;;;;;;8.30;4.82;;;8.00;99.90;;;;;;5072576;28;20023;-83
2022/11/12 06:39:37;;;;;;;8.00;4.47;;;8.00;99.90;;;;;;5058540;28;20442;-83
2022/11/12 06:42:02;;;;;;;7.93;4.20;;;8.00;99.90;;;;;;5068656;28;20044;-83
2022/11/12 06:44:28;;;;;;;7.35;4.47;;;8.00;99.90;;;;;;5066644;28;20082;-83
2022/11/12 06:46:53;;;;;;;6.18;4.15;;;8.10;99.90;;;;;;5061045;28;20025;-83
2022/11/12 06:49:19;;;;;;;6.50;3.70;;;8.00;99.90;;;;;;5071535;28;20418;-82
2022/11/12 06:51:45;;;;;;;6.20;4.25;;;8.10;99.90;;;;;;5058874;28;20116;-83
2022/11/12 06:54:10;;;;;;;7.53;4.20;;;8.10;99.90;;;;;;5066119;28;20100;-83
2022/11/12 06:56:36;;;;;;;6.97;3.72;;;8.00;99.90;;;;;;5067031;28;20094;-83
2022/11/12 06:59:01;;;;;;;5.72;3.83;;;8.10;99.90;;;;;;5060816;28;20025;-88
2022/11/12 07:01:27;;;;;;;8.80;4.32;;;8.10;99.90;;;;;;5061503;28;20052;-84
2022/11/12 07:03:53;;;;;;;5.20;3.72;;;8.10;99.90;;;;;;5069742;28;20426;-84
2022/11/12 07:06:19;;;;;;;5.70;3.88;;;8.10;99.90;;;;;;5063419;28;20021;-84
2022/11/12 07:08:50;;;;;;;5.25;3.67;;;8.00;99.90;;;;;;5061918;28;20045;-84
2022/11/12 07:11:17;;;;;;;6.90;3.90;;;8.00;99.90;;;;;;5071448;28;20024;-81
2022/11/12 07:13:43;;;;;;;6.22;4.22;;;8.00;99.90;;;;;;5058948;28;20028;-85
2022/11/12 07:16:10;;;;;;;5.50;3.92;;;8.00;99.90;;;;;;5066961;28;20033;-84
2022/11/12 07:18:36;;;;;;;5.63;3.75;;;7.90;99.90;;;;;;5066918;28;20012;-83
2022/11/12 07:21:10;;;;;;;6.03;3.88;;;7.90;99.90;;;;;;5060148;28;20044;-82
2022/11/12 07:23:36;;;;;;;4.97;3.30;;;8.00;99.90;;;;;;5071157;28;20458;-83
2022/11/12 07:26:11;;;;;;;5.22;3.65;;;7.90;99.90;;;;;;5061752;28;20103;-80
2022/11/12 07:28:36;;;;;;;6.65;3.65;;;7.90;99.90;;;;;;5067661;28;20021;-83
2022/11/12 07:31:04;;;;;;;6.50;3.65;;;7.90;99.90;;;;;;5063781;28;20040;-82
2022/11/12 07:33:31;;;;;;;5.28;3.05;;;7.90;99.90;;;;;;5073817;28;20028;-83
2022/11/12 07:36:17;;;;;;;5.47;3.42;;;7.90;99.90;;;;;;5056845;28;20098;-80
2022/11/12 07:38:44;;;;;;;4.93;3.17;;;7.90;99.90;;;;;;5068739;28;20017;-81
2022/11/12 07:41:15;;;;;;;5.13;2.90;;;7.90;99.90;;;;;;5061141;28;20036;-79
2022/11/12 07:43:42;;;;;;;5.45;3.75;;;7.90;99.90;;;;;;5044270;28;20025;-80
2022/11/12 07:46:14;;;;;;;6.22;4.00;;;7.90;99.90;;;;;;5069425;28;20020;-80
2022/11/12 07:48:40;;;;;;;5.80;3.55;;;7.90;99.90;;;;;;5072513;28;20023;-83
2022/11/12 07:51:11;;;;;;;6.72;3.05;;;7.90;99.90;;;;;;5063858;28;20029;-83
2022/11/12 07:53:37;;;;;;;7.30;4.00;;;7.90;99.90;;;;;;5073569;28;20029;-83
2022/11/12 07:56:03;;;;;;;5.97;3.40;;;7.80;99.90;;;;;;5070486;28;20128;-82
2022/11/12 07:58:31;;;;;;;6.47;3.17;;;7.80;99.90;;;;;;5062468;28;20033;-83
2022/11/12 08:00:57;;;;;;;5.55;3.42;;;7.80;99.90;;;;;;5057877;28;20059;-84
2022/11/12 08:03:23;;;;;;;5.60;3.78;;;7.90;99.90;;;;;;5070566;28;20047;-84
2022/11/12 08:05:49;;;;;;;6.20;3.20;;;7.90;99.90;;;;;;5059192;28;20025;-84
2022/11/12 08:08:15;;;;;;;5.07;3.58;;;7.90;99.90;;;;;;5064179;28;20593;-84
2022/11/12 08:10:40;;;;;;;4.80;3.28;;;7.90;99.90;;;;;;5066641;28;20048;-85
2022/11/12 08:13:06;;;;;;;5.75;3.72;;;7.90;99.90;;;;;;5058014;28;20162;-85
2022/11/12 08:15:32;;;;;;;5.43;3.30;;;8.00;99.90;;;;;;5070079;28;20032;-85
2022/11/12 08:17:58;;;;;;;5.38;3.70;;;7.90;99.90;;;;;;5058352;28;20017;-85
2022/11/12 08:20:23;;;;;;;4.32;3.22;;;8.00;99.90;;;;;;5063182;28;20044;-84
2022/11/12 08:22:49;;;;;;;3.83;3.00;;;7.90;99.90;;;;;;5066793;28;20033;-85
2022/11/12 08:25:15;;;;;;;5.00;2.75;;;7.90;99.90;;;;;;5056582;28;20025;-84
2022/11/12 08:27:41;;;;;;;5.55;2.90;;;8.00;99.90;;;;;;5068561;28;20031;-85
2022/11/12 08:30:07;;;;;;;5.10;3.40;;;8.10;99.90;;;;;;5051825;28;20033;-85
2022/11/12 08:32:33;;;;;;;5.78;3.45;;;8.10;99.90;;;;;;5063747;28;20386;-85
2022/11/12 08:34:58;;;;;;;4.43;3.28;;;8.20;99.90;;;;;;5058224;28;20036;-85
2022/11/12 08:37:24;;;;;;;5.10;3.17;;;8.20;99.90;;;;;;5070162;28;20051;-84
2022/11/12 08:39:50;;;;;;;4.53;2.83;;;8.20;99.90;;;;;;5057663;28;20031;-85
2022/11/12 08:42:15;;;;;;;5.00;3.20;;;8.10;99.90;;;;;;5063336;28;20025;-85
2022/11/12 08:44:41;;;;;;;5.75;3.35;;;8.10;99.90;;;;;;5065842;28;20461;-85
2022/11/12 08:47:06;;;;;;;5.18;3.83;;;8.10;99.90;;;;;;5057118;28;20037;-85
2022/11/12 08:49:32;;;;;;;6.50;3.80;;;8.10;99.90;;;;;;5068891;28;20036;-85
2022/11/12 08:51:57;;;;;;;5.97;4.10;;;8.00;99.90;;;;;;5058959;28;20080;-84
2022/11/12 08:54:23;;;;;;;8.57;4.07;;;8.10;99.90;;;;;;5057482;28;20025;-84
2022/11/12 08:56:49;;;;;;;7.18;3.90;;;8.10;99.90;;;;;;5065528;28;20029;-85
2022/11/12 08:59:15;;;;;;;7.63;3.90;;;8.10;99.90;;;;;;5071443;28;20404;-84
2022/11/12 09:01:41;;;;;;;5.72;3.72;;;8.10;99.90;;;;;;5056700;28;20028;-86
2022/11/12 09:04:06;;;;;;;6.97;4.43;;;8.10;99.90;;;;;;5067173;28;20029;-84
2022/11/12 09:06:32;;;;;;;7.75;4.45;;;8.10;99.90;;;;;;5068185;28;20028;-85
2022/11/12 09:08:58;;;;;;;6.50;4.30;;;8.10;99.90;;;;;;5062479;28;20051;-83
2022/11/12 09:11:23;;;;;;;8.57;4.07;;;8.10;99.90;;;;;;5072510;28;20029;-82
2022/11/12 09:13:52;;;;;;;6.13;3.80;;;8.10;99.90;;;;;;5056049;28;20029;-84
2022/11/12 09:16:17;;;;;;;5.65;3.97;;;8.10;99.90;;;;;;5064265;28;20024;-82
2022/11/12 09:18:43;;;;;;;6.18;3.70;;;8.10;99.90;;;;;;5077534;28;20031;-82
2022/11/12 09:21:12;;;;;;;6.35;3.95;;;8.20;99.90;;;;;;5059836;28;20489;-81
2022/11/12 09:23:37;;;;;;;6.70;4.32;;;8.20;99.90;;;;;;5072181;28;20032;-85
2022/11/12 09:26:04;;;;;;;8.23;4.30;;;8.20;99.90;;;;;;5063156;28;20020;-85
2022/11/12 09:28:31;;;;;;;5.65;3.80;;;8.20;99.90;;;;;;5065385;28;20029;-85
2022/11/12 09:30:56;;;;;;;6.38;4.15;;;8.20;99.90;;;;;;5061907;28;20086;-85
2022/11/12 09:33:26;;;;;;;5.90;3.97;;;8.20;99.90;;;;;;5073377;28;20028;-84
2022/11/12 09:35:52;;;;;;;6.78;4.32;;;8.20;99.90;;;;;;5075808;28;20036;-84
2022/11/12 09:38:18;;;;;;;5.72;3.88;;;8.30;99.90;;;;;;5065776;28;20021;-84
2022/11/12 09:40:50;;;;;;;10.07;4.72;;;8.30;99.90;;;;;;5068072;28;20051;-83
2022/11/12 09:43:32;;;;;;;6.32;4.05;;;8.40;99.90;;;;;;5057993;28;20021;-84
2022/11/12 09:46:35;;;;;;;6.30;4.07;;;8.40;99.90;;;;;;5063173;28;20051;-82
2022/11/12 09:49:15;;;;;;;8.02;4.45;;;8.50;99.90;;;;;;5053669;28;20037;-83
2022/11/12 09:51:51;;;;;;;7.43;4.90;;;8.40;99.90;;;;;;5058897;28;20023;-84
2022/11/12 09:54:19;;;;;;;8.82;5.25;;;8.40;99.90;;;;;;5056965;28;20032;-83
2022/11/12 09:56:48;;;;;;;8.98;5.05;;;8.40;99.90;;;;;;5056704;28;20106;-86
2022/11/12 09:59:14;;;;;;;9.88;5.50;;;8.30;99.90;;;;;;5068662;28;20021;-78
2022/11/12 10:01:54;;;;;;;7.90;5.28;;;8.40;99.90;;;;;;5062417;28;20375;-83
2022/11/12 10:04:51;;;;;;;10.88;6.30;;;8.40;99.90;;;;;;5058378;28;20035;-82
2022/11/12 10:07:39;;;;;;;9.80;5.93;;;8.40;99.90;;;;;;5059488;28;20105;-82
2022/11/12 10:10:30;;;;;;;9.93;6.13;;;8.50;99.90;;;;;;5057030;28;20052;-82
2022/11/12 10:13:10;;;;;;;12.10;6.53;;;8.50;99.90;;;;;;5057151;28;20032;-83
2022/11/12 10:18:42;;;;;;;12.27;7.35;;;8.50;99.90;;;;;;5057915;28;20036;-82
2022/11/12 10:21:27;;;;;;;13.18;7.38;;;8.40;99.90;;;;;;5058716;28;20096;-81
2022/11/12 10:23:53;;;;;;;12.50;7.57;;;8.40;99.90;;;;;;5045395;28;20071;-83
2022/11/12 10:26:21;;;;;;;12.63;8.07;;;8.40;99.90;;;;;;5057499;28;20421;-87
2022/11/12 10:28:58;;;;;;;14.27;8.55;;;8.30;99.90;;;;;;5057241;28;20036;-89
2022/11/12 10:31:23;;;;;;;15.02;8.93;;;8.20;99.90;;;;;;5060153;28;20051;-84
2022/11/12 10:33:49;;;;;;;13.90;8.70;;;8.20;99.90;;;;;;5057210;28;20466;-85
2022/11/12 10:36:21;;;;;;;17.58;9.52;;;8.30;99.90;;;;;;5056085;28;20129;-82
2022/11/12 10:38:48;;;;;;;;;;;8.40;99.90;;;;;;5056942;28;20021;-81
2022/11/12 10:41:24;;;;;;;14.95;8.80;;;8.40;99.90;;;;;;5058610;28;19995;-81
2022/11/12 10:44:02;;;;;;;16.90;9.93;;;8.40;99.90;;;;;;5059186;28;20025;-79
2022/11/12 10:46:30;;;;;;;16.20;8.98;;;8.50;99.90;;;;;;5064473;28;20032;-80
2022/11/12 10:49:03;;;;;;;15.85;9.40;;;8.40;99.90;;;;;;5055322;28;20029;-80
2022/11/12 10:51:31;;;;;;;19.98;9.75;;;8.40;99.90;;;;;;5057345;28;20103;-81
2022/11/12 10:53:58;;;;;;;19.20;10.60;;;8.30;99.90;;;;;;5055771;28;20052;-80
2022/11/12 10:56:28;;;;;;;18.33;10.00;;;8.40;99.90;;;;;;5039550;28;20091;-81
2022/11/12 10:59:14;;;;;;;20.90;10.32;;;8.40;99.90;;;;;;5055967;28;20028;-80
2022/11/12 11:01:40;;;;;;;18.60;10.00;;;8.40;99.90;;;;;;5052045;28;20079;-86
2022/11/12 11:04:15;;;;;;;18.27;10.32;;;8.40;99.90;;;;;;5056290;28;20024;-81
2022/11/12 11:06:41;;;;;;;20.33;10.80;;;8.50;99.90;;;;;;5056381;28;20055;-85
2022/11/12 11:09:16;;;;;;;19.75;11.02;;;8.50;99.90;;;;;;5057468;28;20092;-88
2022/11/12 11:11:50;;;;;;;20.25;10.75;;;8.50;99.90;;;;;;5043168;28;20036;-91
2022/11/12 11:14:21;;;;;;;22.65;11.68;;;8.50;99.90;;;;;;5062965;28;20644;-87
2022/11/12 11:16:52;;;;;;;21.23;10.68;;;8.50;99.90;;;;;;5061856;28;20025;-81
2022/11/12 11:19:19;;;;;;;23.58;11.55;;;8.50;99.90;;;;;;5060372;28;20025;-83
2022/11/12 11:22:10;;;;;;;20.17;10.60;;;8.50;99.90;;;;;;5059429;28;20024;-89
2022/11/12 11:24:50;;;;;;;20.33;10.85;;;8.50;99.90;;;;;;5058025;28;20112;-88
2022/11/12 11:27:31;;;;;;;19.15;10.00;;;8.50;99.90;;;;;;5060290;28;20050;-90
2022/11/12 11:30:12;;;;;;;22.80;12.50;;;8.50;99.90;;;;;;5045305;28;20068;-80
2022/11/12 11:32:59;;;;;;;23.77;11.80;;;8.50;99.90;;;;;;5067472;28;20468;-83
2022/11/12 11:35:43;;;;;;;20.33;11.63;;;8.40;99.90;;;;;;5063073;28;20108;-82
2022/11/12 11:38:35;;;;;;;21.60;11.60;;;8.50;99.90;;;;;;5068703;28;20023;-81
2022/11/12 11:41:18;;;;;;;23.25;11.05;;;8.50;99.90;;;;;;5068067;28;20028;-78
2022/11/12 11:44:00;;;;;;;21.27;11.00;;;8.50;99.90;;;;;;5066906;28;20055;-81
2022/11/12 11:46:50;;;;;;;23.60;11.13;;;8.50;99.90;;;;;;5057831;28;20095;-81
2022/11/12 11:49:49;;;;;;;21.25;11.95;;;8.60;99.90;;;;;;5059112;28;20024;-80
2022/11/12 11:52:43;;;;;;;20.52;11.07;;;8.50;99.90;;;;;;5047043;28;20029;-80
2022/11/12 11:55:48;;;;;;;21.55;11.23;;;8.60;99.90;;;;;;5043130;28;20065;-79
2022/11/12 11:58:45;;;;;;;19.95;10.82;;;8.60;99.90;;;;;;5055366;28;20065;-81
2022/11/12 12:01:25;;;;;;;20.50;11.50;;;8.60;99.90;;;;;;5057834;28;20039;-80
2022/11/12 12:04:15;;;;;;;21.88;10.70;;;8.60;99.90;;;;;;5045854;28;20029;-79
2022/11/12 12:06:50;;;;;;;21.17;10.75;;;8.60;99.90;;;;;;5057518;28;20024;-81
2022/11/12 12:09:27;;;;;;;20.42;10.35;;;8.60;99.90;;;;;;5058361;28;20052;-82
2022/11/12 12:12:02;;;;;;;19.30;10.57;;;8.60;99.90;;;;;;5044738;28;20474;-82
2022/11/12 12:15:07;;;;;;;20.20;10.88;;;8.60;99.90;;;;;;5061869;28;20035;-81
2022/11/12 12:17:44;;;;;;;17.92;10.63;;;8.70;99.90;;;;;;5015395;28;20048;-83
2022/11/12 12:20:43;;;;;;;18.73;10.88;;;8.70;99.90;;;;;;5055226;28;20032;-91
2022/11/12 12:23:38;;;;;;;19.73;10.80;;;8.70;99.90;;;;;;5059064;28;20032;-91
2022/11/12 12:26:11;;;;;;;20.52;10.10;;;8.70;99.90;;;;;;5044410;28;20469;-81
2022/11/12 12:28:52;;;;;;;16.60;9.57;;;8.60;99.90;;;;;;5072686;28;20033;-91
2022/11/12 12:31:25;;;;;;;16.27;9.40;;;8.70;99.90;;;;;;5058883;28;20560;-85
2022/11/12 12:34:05;;;;;;;17.55;9.15;;;8.70;99.90;;;;;;5056251;28;20045;-82
2022/11/12 12:36:36;;;;;;;16.88;9.30;;;8.70;99.90;;;;;;5056244;28;20033;-87
2022/11/12 12:39:17;;;;;;;16.23;9.73;;;8.70;99.90;;;;;;5056429;28;20413;-92
2022/11/12 12:41:56;;;;;;;17.48;9.23;;;8.70;99.90;;;;;;5057739;28;20031;-86
2022/11/12 12:44:58;;;;;;;433.40;208.45;;;8.70;99.90;;;;;;5060769;28;20029;-79
2022/11/12 12:47:11;;;;;;;59.47;30.70;;;8.70;99.90;;;;;;5054371;28;20057;-86
2022/11/12 12:49:38;;;;;;;30.10;16.70;;;8.70;99.90;;;;;;5062458;28;20074;-78
2022/11/12 12:52:04;;;;;;;22.33;12.55;;;8.70;99.90;;;;;;5066866;28;20020;-77
2022/11/12 12:54:36;;;;;;;20.67;11.02;;;8.60;99.90;;;;;;5057567;28;20029;-81
2022/11/12 12:57:37;;;;;;;21.10;10.85;;;8.60;99.90;;;;;;5056995;28;20029;-80
2022/11/12 13:00:33;;;;;;;17.17;9.68;;;8.70;99.90;;;;;;5045192;28;20028;-80
2022/11/12 13:02:59;;;;;;;14.13;8.48;;;8.70;99.90;;;;;;5067375;28;20062;-80
2022/11/12 13:05:28;;;;;;;15.93;8.98;;;8.70;99.90;;;;;;5059322;28;20023;-78
2022/11/12 13:07:58;;;;;;;13.70;8.77;;;8.60;99.90;;;;;;5066470;28;20023;-79
2022/11/12 13:10:46;;;;;;;14.55;8.70;;;8.60;99.90;;;;;;5065640;28;20174;-78
2022/11/12 13:13:18;;;;;;;13.85;8.20;;;8.70;99.90;;;;;;5063777;28;20033;-75
2022/11/12 13:15:49;;;;;;;13.57;8.13;;;8.60;99.90;;;;;;5066527;28;20035;-83
2022/11/12 13:18:36;;;;;;;12.57;8.38;;;8.60;99.90;;;;;;5055947;28;20032;-77
2022/11/12 13:21:19;;;;;;;14.05;8.68;;;8.60;99.90;;;;;;5056161;28;20025;-83
2022/11/12 13:24:06;;;;;;;14.02;8.18;;;8.70;99.90;;;;;;5057266;28;20032;-84
2022/11/12 13:26:40;;;;;;;13.77;8.10;;;8.60;99.90;;;;;;5056593;28;20466;-83
2022/11/12 13:29:24;;;;;;;13.18;7.90;;;8.60;99.90;;;;;;5057300;28;20029;-83
2022/11/12 13:32:28;;;;;;;12.10;7.57;;;8.50;99.90;;;;;;5054901;28;20036;-83
2022/11/12 13:35:15;;;;;;;12.13;7.70;;;8.50;99.90;;;;;;5064763;28;20052;-79
2022/11/12 13:38:07;;;;;;;13.75;7.32;;;8.60;99.90;;;;;;5066896;28;20029;-84
2022/11/12 13:40:44;;;;;;;13.48;8.18;;;8.60;99.90;;;;;;5066867;28;20035;-84